createdAt,value
2022-08-16T00:03:59.004Z,1004.53
2022-08-16T00:06:47.611Z,1004.56
2022-08-16T00:09:30.458Z,1004.62
2022-08-16T00:15:56.123Z,1004.63
2022-08-16T00:19:41.513Z,1004.66
2022-08-16T00:22:13.028Z,1004.66
2022-08-16T00:43:42.426Z,1004.76
2022-08-16T00:45:58.198Z,1004.71
2022-08-16T00:48:28.686Z,1004.72
2022-08-16T00:49:17.317Z,1004.74
2022-08-16T00:52:30.575Z,1004.74
2022-08-16T00:55:45.381Z,1004.77
2022-08-16T00:58:34.471Z,1004.79
2022-08-16T00:59:17.718Z,1004.80
2022-08-16T01:01:35.992Z,1004.82
2022-08-16T01:04:01.081Z,1004.84
2022-08-16T01:07:02.065Z,1004.86
2022-08-16T01:07:53.551Z,1004.91
2022-08-16T01:10:32.508Z,1004.86
2022-08-16T01:12:35.664Z,1004.86
2022-08-16T01:15:30.214Z,1004.89
2022-08-16T01:18:08.853Z,1004.88
2022-08-16T01:19:11.282Z,1004.89
2022-08-16T01:21:40.880Z,1004.93
2022-08-16T01:24:51.599Z,1004.94
2022-08-16T01:25:21.746Z,1004.90
2022-08-16T01:29:58.553Z,1004.94
2022-08-16T01:33:01.191Z,1004.95
2022-08-16T01:33:57.131Z,1004.94
2022-08-16T01:36:46.873Z,1004.97
2022-08-16T01:39:03.318Z,1005.00
2022-08-16T01:41:21.009Z,1005.03
2022-08-16T02:02:03.398Z,1005.14
2022-08-16T02:03:04.341Z,1005.11
2022-08-16T02:06:33.868Z,1005.23
2022-08-16T02:08:41.920Z,1005.24
2022-08-16T02:11:48.595Z,1005.23
2022-08-16T02:35:58.379Z,1005.14
2022-08-16T02:38:26.399Z,1005.15
2022-08-16T02:41:24.779Z,1005.12
2022-08-16T02:45:08.392Z,1005.17
2022-08-16T02:47:32.400Z,1005.16
2022-08-16T02:50:28.043Z,1005.17
2022-08-16T02:52:29.344Z,1005.18
2022-08-16T04:20:33.988Z,1005.58
2022-08-16T04:21:29.512Z,1005.62
2022-08-16T04:24:09.416Z,1005.66
2022-08-16T04:26:45.868Z,1005.65
2022-08-16T04:29:14.733Z,1005.67
2022-08-16T04:31:10.749Z,1005.72
2022-08-16T04:33:28.899Z,1005.70
2022-08-16T04:35:49.621Z,1005.72
2022-08-16T04:38:10.925Z,1005.71
2022-08-16T04:40:21.522Z,1005.74
2022-08-16T04:46:00.412Z,1005.68
2022-08-16T04:48:12.345Z,1005.73
2022-08-16T04:53:09.119Z,1005.73
2022-08-16T04:55:31.824Z,1005.74
2022-08-16T04:57:53.995Z,1005.78
2022-08-16T05:00:31.733Z,1005.82
2022-08-16T05:01:15.532Z,1005.79
2022-08-16T05:03:35.525Z,1005.75
2022-08-16T05:06:42.462Z,1005.76
2022-08-16T05:08:49.978Z,1005.79
2022-08-16T05:11:08.346Z,1005.78
2022-08-16T05:13:23.754Z,1005.81
2022-08-16T05:14:45.894Z,1005.80
2022-08-16T05:15:24.718Z,1005.82
2022-08-16T05:18:18.285Z,1005.83
2022-08-16T05:20:45.362Z,1005.80
2022-08-16T05:22:54.519Z,1005.82
2022-08-16T05:28:47.091Z,1005.88
2022-08-16T05:31:06.864Z,1005.90
2022-08-16T05:35:39.271Z,1005.98
2022-08-16T05:38:32.305Z,1005.98
2022-08-16T05:39:14.870Z,1005.94
2022-08-16T05:41:32.493Z,1005.97
2022-08-16T05:43:46.722Z,1006.00
2022-08-16T05:46:01.152Z,1005.96
2022-08-16T05:48:15.725Z,1005.94
2022-08-16T05:50:34.661Z,1005.97
2022-08-16T05:52:48.681Z,1006.03
2022-08-16T05:55:01.965Z,1005.96
2022-08-16T05:57:22.108Z,1005.99
2022-08-16T05:59:40.209Z,1005.95
2022-08-16T06:01:55.867Z,1006.02
2022-08-16T06:04:13.691Z,1005.98
2022-08-16T06:05:12.366Z,1005.98
2022-08-16T06:07:27.938Z,1006.00
2022-08-16T06:09:44.617Z,1005.94
2022-08-16T06:11:57.124Z,1005.97
2022-08-16T06:14:14.009Z,1005.99
2022-08-16T06:16:29.630Z,1006.01
2022-08-16T06:18:46.203Z,1006.08
2022-08-16T06:21:04.505Z,1006.07
2022-08-16T06:23:33.819Z,1006.15
2022-08-16T06:25:52.874Z,1006.18
2022-08-16T06:28:17.299Z,1006.26
2022-08-16T06:29:11.501Z,1006.26
2022-08-16T06:31:28.603Z,1006.27
2022-08-16T06:33:45.226Z,1006.24
2022-08-16T06:36:02.818Z,1006.29
2022-08-16T06:38:32.793Z,1006.26
2022-08-16T06:39:21.966Z,1006.22
2022-08-16T06:41:39.725Z,1006.27
2022-08-16T06:43:55.535Z,1006.32
2022-08-16T06:46:13.600Z,1006.40
2022-08-16T06:48:34.192Z,1006.37
2022-08-16T06:50:49.773Z,1006.37
2022-08-16T06:53:08.701Z,1006.40
2022-08-16T06:55:24.487Z,1006.37
2022-08-16T06:57:42.532Z,1006.38
2022-08-16T07:00:02.021Z,1006.36
2022-08-16T07:02:33.411Z,1006.43
2022-08-16T07:03:28.448Z,1006.42
2022-08-16T07:04:32.472Z,1006.44
2022-08-16T07:06:35.269Z,1006.44
2022-08-16T07:08:53.338Z,1006.46
2022-08-16T07:11:10.905Z,1006.47
2022-08-16T07:13:58.844Z,1006.49
2022-08-16T07:14:27.744Z,1006.53
2022-08-16T07:16:43.084Z,1006.58
2022-08-16T07:19:01.870Z,1006.64
2022-08-16T07:21:19.305Z,1006.66
2022-08-16T07:23:39.920Z,1006.61
2022-08-16T07:25:56.479Z,1006.66
2022-08-16T07:28:20.813Z,1006.65
2022-08-16T07:30:56.752Z,1006.68
2022-08-16T07:36:22.215Z,1006.72
2022-08-16T07:38:46.967Z,1006.71
2022-08-16T07:48:13.165Z,1006.74
2022-08-16T08:01:47.965Z,1006.81
2022-08-16T08:04:06.006Z,1006.81
2022-08-16T08:06:27.126Z,1006.80
2022-08-16T08:14:29.392Z,1006.82
2022-08-16T09:15:50.925Z,1007.02
2022-08-16T09:18:26.137Z,1007.01
2022-08-16T09:40:42.733Z,1007.12
2022-08-16T09:44:00.174Z,1007.17
2022-08-16T10:13:10.131Z,1007.02
2022-08-16T10:25:06.049Z,1007.00
2022-08-16T10:32:11.532Z,1007.09
2022-08-16T10:37:46.957Z,1007.03
2022-08-16T10:44:56.671Z,1007.02
2022-08-16T10:48:54.285Z,1007.00
2022-08-16T10:52:01.677Z,1007.00
2022-08-16T11:35:10.821Z,1007.06
2022-08-16T11:38:55.762Z,1007.05
2022-08-16T11:39:35.262Z,1007.04
2022-08-16T13:15:28.710Z,1006.98
2022-08-16T13:17:46.866Z,1006.99
2022-08-16T13:20:11.243Z,1006.99
2022-08-16T13:34:01.559Z,1007.02
2022-08-16T13:54:56.476Z,1007.01
2022-08-16T14:14:45.957Z,1006.93
2022-08-16T14:17:22.634Z,1006.96
2022-08-16T14:22:30.494Z,1007.03
2022-08-16T14:27:07.315Z,1006.92
2022-08-16T14:29:28.461Z,1006.90
2022-08-16T14:55:17.431Z,1006.92
2022-08-16T14:59:23.106Z,1006.85
2022-08-16T15:01:59.815Z,1006.89
2022-08-16T15:02:40.354Z,1006.85
2022-08-16T15:08:40.570Z,1006.95
2022-08-16T15:12:26.475Z,1006.86
2022-08-16T15:13:10.101Z,1006.89
2022-08-16T15:15:27.212Z,1006.94
2022-08-16T15:17:56.067Z,1006.91
2022-08-16T15:20:19.901Z,1006.87
2022-08-16T15:22:36.250Z,1006.88
2022-08-16T15:24:53.124Z,1006.91
2022-08-16T15:30:56.839Z,1006.88
2022-08-16T15:32:33.195Z,1006.88
2022-08-16T15:36:01.844Z,1006.85
2022-08-16T15:38:43.525Z,1006.88
2022-08-16T15:39:30.483Z,1006.87
2022-08-16T15:40:32.529Z,1006.89
2022-08-16T15:42:37.066Z,1006.87
2022-08-16T15:44:58.438Z,1006.85
2022-08-16T15:59:11.269Z,1006.86
2022-08-16T16:08:47.763Z,1006.87
2022-08-16T16:11:03.474Z,1006.88
2022-08-16T16:13:21.407Z,1006.87
2022-08-16T16:19:16.764Z,1006.89
2022-08-16T16:21:34.836Z,1006.91
2022-08-16T16:23:55.025Z,1006.93
2022-08-16T16:26:09.531Z,1006.87
2022-08-16T16:28:29.935Z,1006.94
2022-08-16T16:29:30.068Z,1006.89
2022-08-16T16:35:17.673Z,1006.90
2022-08-16T16:37:37.110Z,1006.91
2022-08-16T16:39:55.045Z,1006.86
2022-08-16T16:42:29.321Z,1006.90
2022-08-16T16:43:15.086Z,1006.96
2022-08-16T16:45:36.446Z,1006.94
2022-08-16T16:47:48.427Z,1006.98
2022-08-16T16:50:10.546Z,1006.99
2022-08-16T16:52:50.795Z,1007.04
2022-08-16T16:55:26.981Z,1007.06
2022-08-16T16:57:42.362Z,1007.09
2022-08-16T17:00:29.733Z,1007.12
2022-08-16T17:04:50.267Z,1007.21
2022-08-16T17:08:19.762Z,1007.22
2022-08-16T17:10:46.258Z,1007.22
2022-08-16T17:13:05.283Z,1007.24
2022-08-16T17:15:19.055Z,1007.23
2022-08-16T17:18:00.452Z,1007.29
2022-08-16T17:19:56.423Z,1007.29
2022-08-16T17:23:58.510Z,1007.40
2022-08-16T17:25:59.504Z,1007.37
2022-08-16T17:30:15.160Z,1007.39
2022-08-16T17:32:33.871Z,1007.43
2022-08-16T17:33:26.536Z,1007.38
2022-08-16T17:36:55.111Z,1007.43
2022-08-16T17:39:09.945Z,1007.44
2022-08-16T17:41:30.575Z,1007.47
2022-08-16T17:43:46.101Z,1007.45
2022-08-16T17:46:02.691Z,1007.50
2022-08-16T17:48:20.792Z,1007.51
2022-08-16T17:50:39.713Z,1007.52
2022-08-16T17:52:59.552Z,1007.60
2022-08-16T17:55:23.615Z,1007.64
2022-08-16T17:57:33.900Z,1007.69
2022-08-16T17:59:53.901Z,1007.73
2022-08-16T18:02:42.946Z,1007.72
2022-08-16T18:03:09.530Z,1007.73
2022-08-16T18:05:52.726Z,1007.71
2022-08-16T18:07:43.239Z,1007.73
2022-08-16T18:10:08.697Z,1007.73
2022-08-16T18:12:41.592Z,1007.77
2022-08-16T18:14:51.114Z,1007.75
2022-08-16T18:16:54.140Z,1007.78
2022-08-16T18:19:10.717Z,1007.76
2022-08-16T18:21:40.635Z,1007.85
2022-08-16T18:23:43.796Z,1007.82
2022-08-16T18:26:01.958Z,1007.83
2022-08-16T18:28:48.909Z,1007.88
2022-08-16T18:30:51.494Z,1007.92
2022-08-16T18:33:22.683Z,1007.92
2022-08-16T18:36:49.566Z,1007.97
2022-08-16T18:39:22.658Z,1008.00
2022-08-16T18:41:24.717Z,1008.06
2022-08-16T18:43:54.282Z,1008.06
2022-08-16T18:45:59.386Z,1008.04
2022-08-16T18:48:22.877Z,1008.01
2022-08-16T18:50:59.448Z,1008.05
2022-08-16T18:51:39.059Z,1008.06
2022-08-16T18:54:21.692Z,1008.07
2022-08-16T18:56:17.746Z,1008.10
2022-08-16T18:58:40.663Z,1008.16
2022-08-16T19:00:57.415Z,1008.22
2022-08-16T19:03:14.524Z,1008.25
2022-08-16T19:05:30.120Z,1008.24
2022-08-16T19:07:46.577Z,1008.31
2022-08-16T19:10:01.324Z,1008.25
2022-08-16T19:12:37.930Z,1008.28
2022-08-16T19:14:36.966Z,1008.29
2022-08-16T19:16:52.552Z,1008.28
2022-08-16T19:19:08.166Z,1008.28
2022-08-16T19:21:24.305Z,1008.32
2022-08-16T19:23:40.278Z,1008.35
2022-08-16T19:25:52.842Z,1008.34
2022-08-16T19:28:07.996Z,1008.36
2022-08-16T19:29:08.963Z,1008.39
2022-08-16T19:31:21.047Z,1008.43
2022-08-16T19:33:34.627Z,1008.43
2022-08-16T19:35:46.745Z,1008.48
2022-08-16T19:38:01.322Z,1008.50
2022-08-16T19:40:36.750Z,1008.48
2022-08-16T19:41:14.408Z,1008.49
2022-08-16T19:43:29.942Z,1008.50
2022-08-16T19:45:50.548Z,1008.52
2022-08-16T19:48:03.628Z,1008.54
2022-08-16T19:50:21.743Z,1008.56
2022-08-16T19:52:38.208Z,1008.54
2022-08-16T19:54:55.425Z,1008.53
2022-08-16T19:57:13.530Z,1008.62
2022-08-16T19:59:39.534Z,1008.57
2022-08-16T20:00:35.240Z,1008.58
2022-08-16T20:02:47.482Z,1008.59
2022-08-16T20:05:08.038Z,1008.61
2022-08-16T20:07:26.103Z,1008.68
2022-08-16T20:09:39.704Z,1008.68
2022-08-16T20:11:54.301Z,1008.67
2022-08-16T20:14:10.170Z,1008.68
2022-08-16T20:16:23.420Z,1008.72
2022-08-16T20:18:35.515Z,1008.71
2022-08-16T20:20:47.605Z,1008.69
2022-08-16T20:23:01.184Z,1008.71
2022-08-16T20:25:16.756Z,1008.71
2022-08-16T20:27:30.337Z,1008.73
2022-08-16T20:30:59.858Z,1008.77
2022-08-16T20:33:11.922Z,1008.77
2022-08-16T20:35:25.498Z,1008.77
2022-08-16T20:37:38.543Z,1008.83
2022-08-16T20:39:53.199Z,1008.81
2022-08-16T20:40:54.127Z,1008.79
2022-08-16T20:43:05.257Z,1008.81
2022-08-16T20:45:17.325Z,1008.84
2022-08-16T20:47:30.366Z,1008.84
2022-08-16T20:49:45.976Z,1008.87
2022-08-16T20:52:01.574Z,1008.84
2022-08-16T20:54:14.731Z,1008.85
2022-08-16T20:56:27.214Z,1008.85
2022-08-16T20:58:39.298Z,1008.80
2022-08-16T21:00:52.936Z,1008.80
2022-08-16T21:03:05.064Z,1008.76
2022-08-16T21:05:17.140Z,1008.72
2022-08-16T21:07:31.579Z,1008.74
2022-08-16T21:09:51.371Z,1008.80
2022-08-16T21:12:04.993Z,1008.76
2022-08-16T21:14:23.339Z,1008.76
2022-08-16T21:16:36.997Z,1008.81
2022-08-16T21:18:52.564Z,1008.77
2022-08-16T21:21:08.181Z,1008.76
2022-08-16T21:23:20.286Z,1008.77
2022-08-16T21:25:39.625Z,1008.79
2022-08-16T21:26:39.344Z,1008.77
2022-08-16T21:28:56.466Z,1008.79
2022-08-16T21:31:10.088Z,1008.81
2022-08-16T21:33:23.680Z,1008.81
2022-08-16T21:35:39.257Z,1008.79
2022-08-16T21:38:05.701Z,1008.83
2022-08-16T21:38:52.345Z,1008.81
2022-08-16T21:41:09.378Z,1008.87
2022-08-16T21:43:27.500Z,1008.88
2022-08-16T21:45:41.093Z,1008.92
2022-08-16T21:47:59.173Z,1008.97
2022-08-16T21:50:17.324Z,1008.93
2022-08-16T21:52:35.357Z,1008.92
2022-08-16T21:54:54.035Z,1008.93
2022-08-16T21:57:12.028Z,1008.94
2022-08-16T21:59:29.671Z,1008.98
2022-08-16T22:01:47.325Z,1009.02
2022-08-16T22:04:36.015Z,1009.02
2022-08-16T22:06:20.947Z,1009.01
2022-08-16T22:08:39.565Z,1009.03
2022-08-16T22:11:05.079Z,1009.01
2022-08-16T22:11:53.627Z,1009.03
2022-08-16T22:14:08.181Z,1009.01
2022-08-16T22:16:26.282Z,1009.01
2022-08-16T22:18:44.348Z,1009.01
2022-08-16T22:21:04.962Z,1009.05
2022-08-16T22:23:20.558Z,1009.07
2022-08-16T22:25:35.139Z,1009.03
2022-08-16T22:27:50.735Z,1009.10
2022-08-16T22:30:04.336Z,1009.07
2022-08-16T22:32:19.900Z,1009.10
2022-08-16T22:34:35.488Z,1009.12
2022-08-16T22:36:49.086Z,1009.15
2022-08-16T22:39:07.171Z,1009.18
2022-08-16T22:41:21.850Z,1009.19
2022-08-16T22:43:39.849Z,1009.20
2022-08-16T22:45:57.957Z,1009.25
2022-08-16T22:48:10.110Z,1009.26
2022-08-16T22:50:25.641Z,1009.29
2022-08-16T22:52:55.715Z,1009.32
2022-08-16T22:54:51.615Z,1009.32
2022-08-16T22:57:06.185Z,1009.35
2022-08-16T22:59:24.263Z,1009.39
2022-08-16T23:01:42.450Z,1009.33
2022-08-16T23:03:57.972Z,1009.37
2022-08-16T23:06:16.188Z,1009.32
2022-08-16T23:08:35.050Z,1009.34
2022-08-16T23:10:43.771Z,1009.39
2022-08-16T23:12:55.866Z,1009.37
2022-08-16T23:15:09.451Z,1009.38
2022-08-16T23:17:27.555Z,1009.39
2022-08-16T23:19:42.142Z,1009.36
2022-08-16T23:21:55.818Z,1009.40
2022-08-16T23:24:13.872Z,1009.41
2022-08-16T23:26:46.565Z,1009.39
2022-08-16T23:27:28.421Z,1009.40
2022-08-16T23:29:45.535Z,1009.36
2022-08-16T23:31:59.155Z,1009.35
2022-08-16T23:34:15.716Z,1009.35
2022-08-16T23:36:32.845Z,1009.31
2022-08-16T23:38:46.396Z,1009.28
2022-08-16T23:41:02.031Z,1009.25
2022-08-16T23:43:20.115Z,1009.25
2022-08-16T23:45:33.696Z,1009.20
2022-08-16T23:47:49.300Z,1009.16
2022-08-16T23:50:07.407Z,1009.16
2022-08-16T23:52:42.236Z,1009.16
2022-08-16T23:53:26.458Z,1009.14
2022-08-16T23:55:43.564Z,1009.18
2022-08-16T23:58:01.653Z,1009.17
